Terminal Aerodrome Forecast
Issued by NWS

Current Version | Previous Version | Text Only | Print | Product List | Glossary On
Versions: 1 2 3 4 5 6 7 8 9 10 11 12 13 14 15 16 17 18 19 20 21 22 23 24 25
051
FTUS43 KGRR 310546 CCA
TAFLAN
TAF COR
KLAN 310546Z 3106/0106 03003KT P6SM OVC009
     FM310800 03002KT 4SM BR OVC007
     FM311000 04004KT 3SM BR OVC003
     FM311500 02006KT P6SM BKN015
     FM312100 03005KT P6SM VCSH BKN035=

USA.gov is the U.S. government's official web portal to all federal, state and local government web resources and services.